createdAt,value
2023-05-13T04:22:56.692Z,100918.08
2023-05-13T04:25:23.935Z,100922.32
2023-05-13T04:27:51.086Z,100924.42
2023-05-13T04:30:25.490Z,100927.73
2023-05-13T04:32:54.311Z,100928.85
2023-05-13T04:35:21.419Z,100932.14
2023-05-13T04:37:52.356Z,100933.66
2023-05-13T04:40:20.181Z,100932.66
2023-05-13T04:42:54.504Z,100933.86
2023-05-13T04:45:25.315Z,100935.97
2023-05-13T04:47:52.600Z,100933.02
2023-05-13T04:50:19.929Z,100933.80
2023-05-13T04:52:48.653Z,100936.55
2023-05-13T04:55:17.085Z,100930.58
2023-05-13T04:57:43.976Z,100930.39
2023-05-13T05:00:11.667Z,100928.73
2023-05-13T05:02:40.022Z,100927.80
2023-05-13T05:05:07.110Z,100927.89
2023-05-13T05:07:34.314Z,100925.56
2023-05-13T05:10:01.969Z,100925.94
2023-05-13T05:12:32.332Z,100925.94
2023-05-13T05:14:59.213Z,100925.63
2023-05-13T05:17:32.652Z,100922.73
2023-05-13T05:20:02.788Z,100918.23
2023-05-13T05:22:29.757Z,100915.81
2023-05-13T05:24:56.938Z,100919.74
2023-05-13T05:27:25.283Z,100919.95
2023-05-13T05:29:52.315Z,100920.52
2023-05-13T05:32:19.581Z,100925.98
2023-05-13T05:34:46.465Z,100928.46
2023-05-13T05:37:13.329Z,100922.17
2023-05-13T05:39:41.842Z,100919.52
2023-05-13T05:42:08.846Z,100920.14
2023-05-13T05:44:36.240Z,100924.25
2023-05-13T05:47:03.342Z,100926.95
2023-05-13T05:49:30.838Z,100928.09
2023-05-13T05:51:58.610Z,100931.38
2023-05-13T05:54:27.766Z,100930.58
2023-05-13T05:56:55.358Z,100930.13
2023-05-13T05:59:22.571Z,100932.91
2023-05-13T06:01:50.214Z,100928.58
2023-05-13T06:04:17.548Z,100928.78
2023-05-13T06:06:45.718Z,100936.10
2023-05-13T06:09:13.546Z,100932.12
2023-05-13T06:11:40.611Z,100936.56
2023-05-13T06:14:10.622Z,100938.26
2023-05-13T06:16:37.908Z,100936.33
2023-05-13T06:19:06.430Z,100937.52
2023-05-13T06:21:34.721Z,100938.67
2023-05-13T06:24:03.253Z,100939.44
2023-05-13T06:26:31.943Z,100940.11
2023-05-13T06:29:00.137Z,100938.48
2023-05-13T06:31:27.768Z,100936.90
2023-05-13T06:33:54.615Z,100933.64
2023-05-13T06:36:26.384Z,100937.75
2023-05-13T06:38:53.917Z,100934.98
2023-05-13T06:41:22.834Z,100940.58
2023-05-13T06:43:50.749Z,100940.95
2023-05-13T06:46:21.684Z,100939.86
2023-05-13T06:48:52.404Z,100942.85
2023-05-13T06:51:19.395Z,100941.80
2023-05-13T06:53:46.388Z,100945.09
2023-05-13T06:56:13.556Z,100942.89
2023-05-13T06:58:40.620Z,100942.70
2023-05-13T07:01:09.005Z,100940.73
2023-05-13T07:03:36.627Z,100937.96
2023-05-13T07:06:04.518Z,100937.22
2023-05-13T07:08:31.385Z,100935.78
2023-05-13T07:10:58.637Z,100936.98
2023-05-13T07:13:27.650Z,100935.94
2023-05-13T07:15:55.232Z,100932.29
2023-05-13T07:18:22.590Z,100929.99
2023-05-13T07:20:49.485Z,100930.14
2023-05-13T07:23:16.371Z,100930.14
2023-05-13T07:25:43.831Z,100929.88
2023-05-13T07:28:10.881Z,100928.88
2023-05-13T07:30:40.284Z,100930.54
2023-05-13T07:33:07.289Z,100927.52
2023-05-13T07:35:34.157Z,100923.08
2023-05-13T07:38:01.136Z,100925.65
2023-05-13T07:40:28.021Z,100923.39
2023-05-13T07:42:54.866Z,100923.13
2023-05-13T07:45:22.379Z,100924.59
2023-05-13T07:47:49.840Z,100924.30
2023-05-13T07:50:17.048Z,100926.57
2023-05-13T07:52:44.274Z,100922.27
2023-05-13T07:55:11.557Z,100919.71
2023-05-13T07:57:38.431Z,100920.73
2023-05-13T08:00:06.340Z,100918.81
2023-05-13T08:02:41.478Z,100917.63
2023-05-13T08:05:08.589Z,100920.67
2023-05-13T08:07:35.574Z,100919.73
2023-05-13T08:10:02.686Z,100923.32
2023-05-13T08:12:29.588Z,100920.91
2023-05-13T08:14:56.594Z,100914.59
2023-05-13T08:17:23.570Z,100910.46
2023-05-13T08:19:50.636Z,100905.61
2023-05-13T08:22:17.479Z,100906.04
2023-05-13T08:24:45.547Z,100904.83
2023-05-13T08:27:13.214Z,100902.77
2023-05-13T08:29:40.920Z,100901.02
2023-05-13T08:32:07.852Z,100902.61
2023-05-13T08:34:35.588Z,100893.10
2023-05-13T08:37:02.584Z,100893.05
2023-05-13T08:39:29.546Z,100891.29
2023-05-13T08:41:57.823Z,100888.73
2023-05-13T08:44:29.279Z,100882.52
2023-05-13T08:47:11.684Z,100883.78
2023-05-13T08:49:38.475Z,100878.95
2023-05-13T08:52:06.145Z,100877.68
2023-05-13T08:54:32.966Z,100876.23
2023-05-13T09:02:55.050Z,100871.54
2023-05-13T09:05:22.351Z,100867.59
2023-05-13T09:07:49.655Z,100864.79
2023-05-13T09:10:16.917Z,100864.58
2023-05-13T09:12:47.014Z,100860.46
2023-05-13T09:15:26.606Z,100865.15
2023-05-13T09:17:59.762Z,100862.69
2023-05-13T09:20:26.927Z,100858.92
2023-05-13T09:23:17.883Z,100858.95
2023-05-13T09:25:44.916Z,100853.67
2023-05-13T09:28:14.459Z,100853.72
2023-05-13T09:30:46.214Z,100851.29
2023-05-13T09:33:19.970Z,100837.59
2023-05-13T09:35:52.236Z,100838.05
2023-05-13T09:38:20.705Z,100830.33
2023-05-13T09:41:00.156Z,100831.04
2023-05-13T09:43:29.031Z,100826.19
2023-05-13T09:45:57.458Z,100829.26
2023-05-13T09:48:28.578Z,100828.00
2023-05-13T09:50:58.004Z,100820.17
2023-05-13T09:53:28.507Z,100820.16
2023-05-13T09:55:56.913Z,100818.84
2023-05-13T09:58:25.431Z,100809.63
2023-05-13T10:00:53.352Z,100806.42
2023-05-13T10:03:20.725Z,100804.96
2023-05-13T10:05:48.520Z,100808.69
2023-05-13T10:08:15.937Z,100804.50
2023-05-13T10:10:47.948Z,100803.33
2023-05-13T10:13:16.014Z,100797.54
2023-05-13T10:15:50.493Z,100793.54
2023-05-13T10:18:19.878Z,100799.91
2023-05-13T10:20:47.468Z,100798.73
2023-05-13T10:23:16.370Z,100797.41
2023-05-13T10:25:43.316Z,100793.16
2023-05-13T10:28:10.703Z,100790.38
2023-05-13T10:30:39.224Z,100789.35
2023-05-13T10:33:06.309Z,100787.10
2023-05-13T10:35:38.515Z,100782.98
2023-05-13T10:38:30.060Z,100780.52
2023-05-13T10:41:15.182Z,100779.34
2023-05-13T10:43:42.134Z,100783.86
2023-05-13T10:46:12.531Z,100783.67
2023-05-13T10:48:41.648Z,100776.23
2023-05-13T10:51:09.700Z,100768.64
2023-05-13T10:53:44.262Z,100771.52
2023-05-13T10:56:12.149Z,100774.66
2023-05-13T10:58:39.962Z,100774.38
2023-05-13T11:01:28.469Z,100772.59
2023-05-13T11:03:57.280Z,100766.53
2023-05-13T11:06:29.337Z,100770.53
2023-05-13T11:08:56.501Z,100767.99
2023-05-13T11:11:23.567Z,100765.27
2023-05-13T11:14:03.987Z,100765.77
2023-05-13T11:16:31.060Z,100764.33
2023-05-13T11:18:58.255Z,100758.15
2023-05-13T11:21:41.187Z,100758.09
2023-05-13T11:24:08.247Z,100755.30
2023-05-13T11:26:51.746Z,100755.27
2023-05-13T11:29:37.103Z,100756.02
2023-05-13T11:32:05.166Z,100759.31
2023-05-13T11:34:32.328Z,100764.23
2023-05-13T11:37:08.889Z,100750.50
2023-05-13T11:39:36.375Z,100747.60
2023-05-13T11:42:08.698Z,100747.73
2023-05-13T11:44:36.074Z,100742.53
2023-05-13T11:47:06.344Z,100737.38
2023-05-13T11:49:43.426Z,100730.05
2023-05-13T11:52:14.167Z,100735.16
2023-05-13T11:54:42.666Z,100740.92
2023-05-13T11:57:16.613Z,100741.81
2023-05-13T11:59:54.337Z,100735.60
2023-05-13T12:02:22.717Z,100736.08
2023-05-13T12:04:51.007Z,100733.92
2023-05-13T12:07:24.849Z,100733.16
2023-05-13T12:09:52.692Z,100731.67
2023-05-13T12:12:19.842Z,100732.59
2023-05-13T12:14:50.222Z,100731.17
2023-05-13T12:17:18.177Z,100734.46
2023-05-13T12:20:12.112Z,100732.22
2023-05-13T12:22:45.398Z,100732.44
2023-05-13T12:25:48.012Z,100730.94
2023-05-13T12:28:21.679Z,100731.34
2023-05-13T12:30:56.831Z,100727.92
2023-05-13T12:33:24.805Z,100725.30
2023-05-13T12:35:53.417Z,100719.82
2023-05-13T12:38:24.538Z,100719.31
2023-05-13T12:40:51.676Z,100719.08
2023-05-13T12:43:19.748Z,100716.98
2023-05-13T12:45:47.384Z,100713.27
2023-05-13T12:48:14.835Z,100714.02
2023-05-13T12:50:41.661Z,100711.66
2023-05-13T12:53:08.521Z,100712.61
2023-05-13T12:55:40.094Z,100708.20
2023-05-13T12:58:11.022Z,100706.96
2023-05-13T13:00:38.133Z,100708.65
2023-05-13T13:03:05.193Z,100707.02
2023-05-13T13:05:32.105Z,100698.09
2023-05-13T13:08:01.140Z,100693.60
2023-05-13T13:10:28.557Z,100692.86
2023-05-13T13:12:55.349Z,100692.64
2023-05-13T13:15:22.559Z,100686.14
2023-05-13T13:17:49.645Z,100684.96
2023-05-13T13:20:16.457Z,100686.17
2023-05-13T13:22:43.807Z,100682.73
2023-05-13T13:25:11.143Z,100680.99
2023-05-13T13:27:38.804Z,100681.38
2023-05-13T13:30:06.478Z,100683.23
2023-05-13T13:32:35.414Z,100685.82
2023-05-13T13:35:05.470Z,100687.02
2023-05-13T13:37:32.322Z,100688.95
2023-05-13T13:39:59.290Z,100685.21
2023-05-13T13:42:40.329Z,100687.05
2023-05-13T13:45:11.216Z,100684.55
2023-05-13T13:47:38.552Z,100689.70
2023-05-13T13:50:06.522Z,100694.15
2023-05-13T13:52:33.493Z,100692.06
2023-05-13T13:55:00.712Z,100692.08
2023-05-13T13:57:27.682Z,100697.23
2023-05-13T13:59:55.196Z,100699.46
2023-05-13T14:02:22.243Z,100704.69
2023-05-13T14:04:49.180Z,100705.63
2023-05-13T14:07:16.176Z,100706.98
2023-05-13T14:09:43.149Z,100704.86
2023-05-13T14:12:10.047Z,100705.10
2023-05-13T14:14:36.751Z,100703.52
2023-05-13T14:17:04.248Z,100702.77
2023-05-13T14:19:31.164Z,100700.56
2023-05-13T14:21:58.297Z,100698.46
2023-05-13T14:24:25.076Z,100690.63
2023-05-13T14:26:51.963Z,100692.31
2023-05-13T14:29:18.984Z,100693.89
2023-05-13T14:31:45.877Z,100694.07
2023-05-13T14:34:12.619Z,100694.35
2023-05-13T14:36:40.992Z,100694.98
2023-05-13T14:39:10.573Z,100696.94
2023-05-13T14:41:37.557Z,100694.39
2023-05-13T14:44:04.614Z,100696.37
2023-05-13T14:46:33.945Z,100696.01
2023-05-13T14:49:01.822Z,100692.96
2023-05-13T14:51:28.731Z,100690.61
2023-05-13T14:53:55.606Z,100691.75
2023-05-13T14:56:22.452Z,100685.31
2023-05-13T14:58:50.076Z,100689.40
2023-05-13T15:01:17.427Z,100685.59
2023-05-13T15:03:44.205Z,100681.45
2023-05-13T15:06:11.147Z,100680.70
2023-05-13T15:08:38.049Z,100682.33
2023-05-13T15:11:08.815Z,100676.60
2023-05-13T15:13:36.930Z,100675.58
2023-05-13T15:16:04.001Z,100673.63
2023-05-13T15:18:31.303Z,100674.34
2023-05-13T15:20:58.160Z,100673.27
2023-05-13T15:23:25.046Z,100676.09
2023-05-13T15:25:52.290Z,100677.24
2023-05-13T15:28:19.052Z,100674.23
2023-05-13T15:30:45.844Z,100675.02
2023-05-13T15:33:12.776Z,100671.95
2023-05-13T15:35:39.604Z,100675.63
2023-05-13T15:38:06.331Z,100676.38
2023-05-13T15:40:33.319Z,100674.77
2023-05-13T15:43:00.387Z,100677.04
2023-05-13T15:45:27.350Z,100673.70
2023-05-13T15:47:54.244Z,100674.03
2023-05-13T15:50:21.375Z,100673.69
2023-05-13T15:52:48.248Z,100675.79
2023-05-13T15:55:15.170Z,100678.79
2023-05-13T15:57:42.022Z,100676.21
2023-05-13T16:00:09.689Z,100678.98
2023-05-13T16:02:39.429Z,100677.48
2023-05-13T16:05:07.115Z,100678.33
2023-05-13T16:07:33.953Z,100678.37
2023-05-13T16:10:01.843Z,100676.30
2023-05-13T16:12:32.329Z,100676.86
2023-05-13T16:14:59.183Z,100673.32
2023-05-13T16:17:25.962Z,100673.66
2023-05-13T16:19:52.915Z,100674.05
2023-05-13T16:22:33.698Z,100672.45
2023-05-13T16:25:01.624Z,100676.25
2023-05-13T16:27:28.847Z,100677.53
2023-05-13T16:29:57.650Z,100676.25
2023-05-13T16:32:24.818Z,100679.00
2023-05-13T16:34:52.061Z,100679.68
2023-05-13T16:37:18.818Z,100682.39
2023-05-13T16:39:45.811Z,100685.23
2023-05-13T16:42:12.715Z,100684.83
2023-05-13T16:44:40.703Z,100687.41
2023-05-13T16:47:09.183Z,100685.85
2023-05-13T16:49:36.522Z,100689.28
2023-05-13T16:52:06.737Z,100692.41
2023-05-13T16:54:33.717Z,100697.41
2023-05-13T16:57:01.727Z,100701.03
2023-05-13T16:59:28.524Z,100699.55
2023-05-13T17:01:56.130Z,100700.30
2023-05-13T17:04:22.915Z,100698.95
2023-05-13T17:06:51.055Z,100699.93
2023-05-13T17:09:17.863Z,100701.67
2023-05-13T17:11:45.045Z,100701.81
2023-05-13T17:14:11.772Z,100702.30
2023-05-13T17:16:39.243Z,100700.94
2023-05-13T17:19:06.102Z,100698.54
2023-05-13T17:21:32.893Z,100704.19
2023-05-13T17:23:59.624Z,100703.67
2023-05-13T17:26:26.515Z,100704.39
2023-05-13T17:28:53.893Z,100705.64
2023-05-13T17:31:20.701Z,100710.63
2023-05-13T17:33:47.739Z,100708.40
2023-05-13T17:36:15.143Z,100708.06
2023-05-13T17:38:42.012Z,100708.09
2023-05-13T17:41:08.853Z,100706.27
2023-05-13T17:43:36.421Z,100708.05
2023-05-13T17:46:03.887Z,100709.65
2023-05-13T17:48:31.771Z,100712.78
2023-05-13T17:50:59.135Z,100710.47
2023-05-13T17:53:27.832Z,100715.45
2023-05-13T17:55:54.724Z,100714.94
2023-05-13T17:58:21.565Z,100714.99
2023-05-13T18:00:48.938Z,100718.66
2023-05-13T18:03:16.399Z,100719.11
2023-05-13T18:05:43.404Z,100720.52
2023-05-13T18:08:10.520Z,100721.71
2023-05-13T18:10:37.392Z,100726.99
2023-05-13T18:13:04.361Z,100724.82
2023-05-13T18:15:31.143Z,100725.96
2023-05-13T18:17:57.875Z,100724.27
2023-05-13T18:20:24.796Z,100727.64
2023-05-13T18:22:52.153Z,100729.41
2023-05-13T18:25:19.019Z,100732.86
2023-05-13T18:27:45.884Z,100733.05
2023-05-13T18:30:13.069Z,100734.58
2023-05-13T18:32:41.294Z,100737.58
2023-05-13T18:35:09.346Z,100738.79
2023-05-13T18:37:36.955Z,100740.97
2023-05-13T18:40:04.460Z,100744.83
2023-05-13T18:42:31.410Z,100753.55
2023-05-13T18:44:58.857Z,100754.88
2023-05-13T18:47:27.715Z,100746.56
2023-05-13T18:49:54.677Z,100746.62
2023-05-13T18:52:21.549Z,100746.98
2023-05-13T18:54:48.498Z,100746.23
2023-05-13T18:57:16.803Z,100752.07
2023-05-13T18:59:43.749Z,100754.20
2023-05-13T19:02:10.940Z,100754.91
2023-05-13T19:04:38.315Z,100758.16
2023-05-13T19:07:07.385Z,100757.58
2023-05-13T19:09:36.396Z,100754.84
2023-05-13T19:12:03.384Z,100753.03
2023-05-13T19:14:30.126Z,100755.21
2023-05-13T19:16:57.067Z,100754.52
2023-05-13T19:19:24.378Z,100754.30
2023-05-13T19:21:51.400Z,100752.92
2023-05-13T19:24:18.465Z,100751.50
2023-05-13T19:26:45.242Z,100750.14
2023-05-13T19:29:13.012Z,100744.42
2023-05-13T19:31:40.175Z,100745.29
2023-05-13T19:34:10.203Z,100744.17
2023-05-13T19:36:40.890Z,100740.81
2023-05-13T19:39:10.564Z,100739.48
2023-05-13T19:41:39.751Z,100736.52
2023-05-13T19:44:09.838Z,100737.80
2023-05-13T19:46:39.170Z,100737.20
2023-05-13T19:49:09.962Z,100736.17
2023-05-13T19:51:39.230Z,100733.42
2023-05-13T19:54:11.311Z,100734.25
2023-05-13T19:56:42.350Z,100726.69
2023-05-13T19:59:13.510Z,100727.16
2023-05-13T20:01:45.316Z,100725.41
2023-05-13T20:04:14.411Z,100726.23
2023-05-13T20:06:45.350Z,100726.86
2023-05-13T20:09:16.288Z,100726.02
2023-05-13T20:11:47.276Z,100727.42
2023-05-13T20:14:27.450Z,100722.77
2023-05-13T20:16:57.274Z,100724.08
2023-05-13T20:19:28.333Z,100722.71
2023-05-13T20:21:58.647Z,100720.44
2023-05-13T20:24:28.268Z,100721.77
2023-05-13T20:26:59.302Z,100720.60
2023-05-13T20:29:34.825Z,100716.27
2023-05-13T20:32:05.540Z,100715.92
2023-05-13T20:40:38.949Z,100719.89
2023-05-13T20:43:07.640Z,100721.20
2023-05-13T20:45:39.217Z,100718.30
2023-05-13T20:48:06.632Z,100720.83
2023-05-13T20:50:33.479Z,100720.58
2023-05-13T20:53:00.714Z,100724.14
2023-05-13T20:55:27.728Z,100722.23
2023-05-13T20:57:54.639Z,100717.39
2023-05-13T21:00:22.046Z,100715.62
2023-05-13T21:02:50.482Z,100716.72
2023-05-13T21:05:17.636Z,100717.95
2023-05-13T21:07:44.440Z,100717.24
2023-05-13T21:10:11.324Z,100716.98
2023-05-13T21:12:38.119Z,100715.81
2023-05-13T21:15:05.517Z,100716.29
2023-05-13T21:17:33.664Z,100717.61
2023-05-13T21:20:00.558Z,100717.28
